Time;durP1;ratioP1;P1;durP2;ratioP2;P2;SDS_P1;SDS_P2;PMS_P1;PMS_P2;Temp;Humidity;BMP_temperature;BMP_pressure;BME280_temperature;BME280_humidity;BME280_pressure;Samples;Min_cycle;Max_cycle;Signal;HPM_P1;HPM_P2
2021/04/28 00:01:53;;;;;;;7.43;4.60;;;9.50;64.00;;;;;;5094455;28;20219;-62
2021/04/28 00:04:20;;;;;;;7.80;4.30;;;9.40;63.90;;;;;;5094592;28;20208;-62
2021/04/28 00:06:47;;;;;;;7.63;4.43;;;9.40;63.80;;;;;;5093860;28;20362;-63
2021/04/28 00:09:13;;;;;;;6.00;4.50;;;9.50;63.70;;;;;;5094637;28;20196;-62
2021/04/28 00:11:39;;;;;;;7.77;4.37;;;9.60;63.60;;;;;;5093868;28;20208;-63
2021/04/28 00:14:07;;;;;;;6.53;4.30;;;9.60;63.50;;;;;;5093576;28;20672;-63
2021/04/28 00:16:35;;;;;;;8.13;4.40;;;9.60;63.60;;;;;;5093384;28;20232;-63
2021/04/28 00:19:01;;;;;;;9.43;5.00;;;9.60;63.60;;;;;;5093533;28;20715;-62
2021/04/28 00:21:29;;;;;;;6.37;4.73;;;9.60;63.50;;;;;;5093855;28;20200;-63
2021/04/28 00:23:55;;;;;;;6.73;3.93;;;9.50;63.50;;;;;;5093884;28;20743;-63
2021/04/28 00:26:22;;;;;;;6.90;4.60;;;9.50;63.40;;;;;;5093760;28;20247;-63
2021/04/28 00:28:48;;;;;;;8.80;4.30;;;9.50;63.30;;;;;;5093304;28;20411;-62
2021/04/28 00:31:14;;;;;;;6.67;4.90;;;9.60;63.40;;;;;;5093286;28;20215;-62
2021/04/28 00:33:41;;;;;;;7.23;4.73;;;9.50;63.10;;;;;;5093166;28;20208;-62
2021/04/28 00:36:08;;;;;;;6.27;4.40;;;9.50;63.30;;;;;;5093269;28;20239;-63
2021/04/28 00:38:35;;;;;;;8.20;4.50;;;9.50;63.50;;;;;;5091958;28;20285;-62
2021/04/28 00:41:06;;;;;;;10.50;5.00;;;9.50;63.30;;;;;;5092568;28;20215;-62
2021/04/28 00:43:32;;;;;;;7.47;4.60;;;9.50;63.30;;;;;;5092532;28;20208;-62
2021/04/28 00:46:00;;;;;;;11.10;4.40;;;9.60;63.40;;;;;;5092554;28;20236;-62
2021/04/28 00:48:26;;;;;;;6.53;4.23;;;9.50;63.30;;;;;;5092358;28;20251;-62
2021/04/28 00:50:52;;;;;;;6.80;4.67;;;9.60;63.30;;;;;;5092693;28;20204;-63
2021/04/28 00:53:20;;;;;;;7.70;4.63;;;9.60;63.40;;;;;;5092676;28;20205;-63
2021/04/28 00:55:47;;;;;;;8.50;4.50;;;9.50;63.60;;;;;;5092343;28;20204;-63
2021/04/28 00:58:14;;;;;;;8.37;4.30;;;9.50;63.50;;;;;;5092142;28;20315;-63
2021/04/28 01:00:42;;;;;;;5.47;4.17;;;9.60;63.60;;;;;;5092831;28;20211;-63
2021/04/28 01:03:08;;;;;;;7.73;4.77;;;9.60;63.40;;;;;;5092975;28;20219;-63
2021/04/28 01:05:35;;;;;;;6.70;4.37;;;9.50;63.30;;;;;;5092800;28;20204;-61
2021/04/28 01:08:01;;;;;;;5.70;4.30;;;9.50;63.30;;;;;;5092506;28;20730;-61
2021/04/28 01:10:29;;;;;;;7.00;4.60;;;9.50;63.50;;;;;;5092682;28;20212;-65
2021/04/28 01:12:57;;;;;;;11.83;5.30;;;9.50;63.60;;;;;;5092501;28;20204;-64
2021/04/28 01:15:25;;;;;;;8.77;5.30;;;9.50;63.80;;;;;;5092010;28;20200;-64
2021/04/28 01:17:52;;;;;;;5.87;4.20;;;9.50;64.30;;;;;;5091585;28;20752;-64
2021/04/28 01:20:20;;;;;;;7.77;4.20;;;9.40;64.60;;;;;;5092339;28;20208;-64
2021/04/28 01:22:49;;;;;;;9.13;4.90;;;9.30;65.10;;;;;;5092038;28;20215;-64
2021/04/28 01:25:17;;;;;;;6.97;4.53;;;9.30;65.50;;;;;;5091552;28;20605;-64
2021/04/28 01:27:47;;;;;;;8.57;4.73;;;9.30;65.40;;;;;;5091703;28;20279;-64
2021/04/28 01:30:14;;;;;;;6.07;4.47;;;9.30;65.40;;;;;;5092125;28;20208;-63
2021/04/28 01:32:45;;;;;;;7.10;4.33;;;9.30;65.20;;;;;;5092071;28;20585;-64
2021/04/28 01:35:15;;;;;;;9.97;4.67;;;9.30;65.50;;;;;;5091697;28;20204;-63
2021/04/28 01:37:42;;;;;;;8.23;5.07;;;9.30;65.50;;;;;;5091647;28;20239;-64
2021/04/28 01:40:11;;;;;;;7.20;4.60;;;9.30;65.50;;;;;;5091711;28;20215;-63
2021/04/28 01:42:38;;;;;;;6.87;4.77;;;9.30;65.90;;;;;;5091579;28;20249;-64
2021/04/28 01:45:06;;;;;;;6.80;4.50;;;9.30;65.90;;;;;;5091787;28;20200;-63
2021/04/28 01:47:33;;;;;;;6.13;4.50;;;9.30;65.90;;;;;;5091613;28;20228;-64
2021/04/28 01:50:00;;;;;;;6.10;3.97;;;9.30;65.90;;;;;;5091698;28;20200;-63
2021/04/28 01:52:26;;;;;;;6.67;4.70;;;9.30;66.20;;;;;;5092271;28;20208;-63
2021/04/28 01:54:52;;;;;;;6.87;4.70;;;9.20;66.60;;;;;;5092555;28;20215;-63
2021/04/28 01:57:19;;;;;;;5.70;4.37;;;9.20;67.00;;;;;;5091383;28;20236;-63
2021/04/28 01:59:46;;;;;;;9.43;4.97;;;9.10;67.50;;;;;;5091346;28;20208;-63
2021/04/28 02:02:13;;;;;;;7.67;5.23;;;9.00;67.30;;;;;;5091292;28;20700;-63
2021/04/28 02:04:39;;;;;;;5.33;4.30;;;9.10;67.50;;;;;;5091178;28;20211;-63
2021/04/28 02:07:06;;;;;;;7.63;5.10;;;9.10;67.30;;;;;;5091143;28;20220;-63
2021/04/28 02:09:33;;;;;;;8.83;4.47;;;9.00;67.40;;;;;;5090880;28;20215;-63
2021/04/28 02:12:00;;;;;;;9.23;4.80;;;8.90;67.30;;;;;;5091531;28;20204;-63
2021/04/28 02:14:28;;;;;;;8.73;4.77;;;9.00;67.40;;;;;;5090852;28;20676;-63
2021/04/28 02:16:55;;;;;;;8.50;5.10;;;9.00;68.10;;;;;;5090851;28;20647;-63
2021/04/28 02:19:22;;;;;;;6.53;4.53;;;9.10;67.60;;;;;;5090805;28;20232;-63
2021/04/28 02:21:50;;;;;;;7.53;5.33;;;9.10;67.50;;;;;;5091296;28;20226;-63
2021/04/28 02:24:16;;;;;;;8.80;5.50;;;9.10;67.50;;;;;;5090807;28;20537;-63
2021/04/28 02:26:44;;;;;;;9.53;5.27;;;9.10;67.80;;;;;;5091130;28;20224;-64
2021/04/28 02:29:12;;;;;;;6.90;5.00;;;9.10;67.90;;;;;;5091112;28;20253;-64
2021/04/28 02:31:39;;;;;;;6.93;4.70;;;9.10;68.50;;;;;;5090994;28;20204;-64
2021/04/28 02:34:07;;;;;;;7.83;5.13;;;9.10;68.60;;;;;;5090967;28;20204;-63
2021/04/28 02:36:36;;;;;;;8.43;4.70;;;9.10;69.00;;;;;;5090725;28;20314;-64
2021/04/28 02:39:09;;;;;;;7.47;4.90;;;9.10;69.60;;;;;;5090930;28;20232;-64
2021/04/28 02:41:39;;;;;;;6.97;5.20;;;9.00;69.40;;;;;;5091163;28;20208;-64
2021/04/28 02:44:07;;;;;;;5.77;5.07;;;9.00;69.80;;;;;;5090786;28;20212;-64
2021/04/28 02:46:34;;;;;;;8.67;4.87;;;9.00;70.10;;;;;;5090996;28;20726;-63
2021/04/28 02:49:04;;;;;;;9.53;5.17;;;8.90;70.30;;;;;;5090883;28;20205;-63
2021/04/28 02:51:32;;;;;;;8.50;4.93;;;8.90;70.80;;;;;;5091014;28;20204;-63
2021/04/28 02:54:00;;;;;;;9.40;5.33;;;8.80;71.10;;;;;;5091218;28;20204;-63
2021/04/28 02:56:28;;;;;;;7.93;4.90;;;8.80;71.80;;;;;;5091054;28;20224;-63
2021/04/28 02:58:54;;;;;;;9.03;5.43;;;8.70;72.00;;;;;;5090950;28;20633;-63
2021/04/28 03:01:21;;;;;;;7.07;5.73;;;8.60;72.80;;;;;;5093491;28;20253;-63
2021/04/28 03:03:49;;;;;;;7.00;5.07;;;8.50;73.20;;;;;;5094473;28;20207;-63
2021/04/28 03:06:16;;;;;;;7.47;5.40;;;8.40;73.40;;;;;;5094718;28;20228;-64
2021/04/28 03:08:44;;;;;;;8.33;5.27;;;8.40;73.70;;;;;;5095090;28;20212;-63
2021/04/28 03:11:11;;;;;;;7.67;5.20;;;8.30;73.60;;;;;;5094682;28;20212;-63
2021/04/28 03:13:37;;;;;;;7.03;5.27;;;8.30;73.80;;;;;;5094396;28;20200;-63
2021/04/28 03:16:04;;;;;;;8.83;5.40;;;8.20;73.80;;;;;;5095063;28;20228;-64
2021/04/28 03:18:30;;;;;;;8.77;5.23;;;8.20;74.10;;;;;;5094926;28;20220;-64
2021/04/28 03:20:59;;;;;;;8.17;5.33;;;8.20;74.40;;;;;;5096230;28;20208;-63
2021/04/28 03:23:27;;;;;;;9.33;5.50;;;8.10;75.00;;;;;;5095766;28;20200;-63
2021/04/28 03:25:53;;;;;;;8.77;5.40;;;8.10;75.50;;;;;;5095084;28;20573;-63
2021/04/28 03:28:19;;;;;;;7.07;5.37;;;8.00;75.50;;;;;;5094819;28;20668;-64
2021/04/28 03:30:46;;;;;;;8.37;5.67;;;8.00;75.50;;;;;;5094812;28;20223;-63
2021/04/28 03:33:12;;;;;;;9.47;5.57;;;7.90;75.70;;;;;;5094763;28;20737;-63
2021/04/28 03:35:39;;;;;;;8.90;5.60;;;8.00;75.50;;;;;;5094857;28;20351;-63
2021/04/28 03:38:05;;;;;;;9.33;5.37;;;8.00;75.50;;;;;;5094546;28;20220;-63
2021/04/28 03:40:32;;;;;;;8.63;5.33;;;8.10;75.50;;;;;;5094868;28;20628;-64
2021/04/28 03:42:58;;;;;;;9.63;5.07;;;8.10;75.60;;;;;;5094255;28;20666;-63
2021/04/28 03:45:25;;;;;;;10.57;5.67;;;8.10;76.30;;;;;;5094813;28;20211;-63
2021/04/28 03:47:51;;;;;;;8.60;5.90;;;8.10;76.40;;;;;;5094176;28;20228;-64
2021/04/28 03:50:17;;;;;;;8.80;5.73;;;8.10;76.70;;;;;;5094978;28;20231;-63
2021/04/28 03:52:43;;;;;;;13.03;6.43;;;8.20;76.70;;;;;;5095274;28;20200;-64
2021/04/28 03:55:11;;;;;;;12.03;7.30;;;8.20;76.70;;;;;;5095306;28;20588;-64
2021/04/28 03:57:40;;;;;;;11.90;6.53;;;8.20;76.90;;;;;;5094007;28;20231;-63
2021/04/28 04:00:08;;;;;;;7.03;5.73;;;8.20;76.90;;;;;;5094384;28;20252;-63
2021/04/28 04:02:34;;;;;;;8.57;6.40;;;8.20;77.20;;;;;;5094232;28;20204;-64
2021/04/28 04:05:01;;;;;;;8.10;5.90;;;8.20;77.00;;;;;;5093808;28;20215;-63
2021/04/28 04:07:27;;;;;;;7.87;6.10;;;8.20;76.90;;;;;;5093894;28;20220;-64
2021/04/28 04:09:53;;;;;;;7.50;5.90;;;8.30;76.90;;;;;;5093847;28;20204;-63
2021/04/28 04:12:20;;;;;;;9.23;5.60;;;8.30;77.00;;;;;;5094084;28;20216;-64
2021/04/28 04:14:47;;;;;;;9.20;6.27;;;8.30;76.90;;;;;;5094241;28;20204;-64
2021/04/28 04:17:13;;;;;;;11.73;6.40;;;8.30;77.20;;;;;;5093342;28;20611;-63
2021/04/28 04:19:39;;;;;;;9.13;5.83;;;8.30;77.40;;;;;;5093363;28;20278;-63
2021/04/28 04:22:06;;;;;;;7.87;6.07;;;8.40;77.50;;;;;;5093648;28;20211;-63
2021/04/28 04:24:32;;;;;;;13.57;7.83;;;8.40;77.60;;;;;;5093105;28;20208;-64
2021/04/28 04:26:58;;;;;;;9.80;7.27;;;8.50;77.70;;;;;;5093282;28;20227;-64
2021/04/28 04:29:24;;;;;;;14.03;7.70;;;8.50;78.50;;;;;;5093921;28;20200;-63
2021/04/28 04:31:51;;;;;;;9.67;6.60;;;8.60;78.80;;;;;;5093729;28;20204;-63
2021/04/28 04:34:18;;;;;;;9.87;6.73;;;8.60;78.40;;;;;;5093329;28;20253;-64
2021/04/28 04:36:44;;;;;;;10.83;6.10;;;8.70;78.10;;;;;;5092980;28;20634;-63
2021/04/28 04:39:10;;;;;;;8.93;6.73;;;8.80;78.20;;;;;;5092810;28;20224;-63
2021/04/28 04:41:36;;;;;;;11.67;6.37;;;8.80;78.10;;;;;;5093157;28;20352;-63
2021/04/28 04:44:03;;;;;;;8.03;6.30;;;8.90;78.00;;;;;;5093093;28;20204;-63
2021/04/28 04:46:29;;;;;;;9.30;6.20;;;9.00;77.90;;;;;;5093396;28;20716;-64
2021/04/28 04:48:56;;;;;;;9.33;6.57;;;9.00;77.90;;;;;;5095039;28;20204;-63
2021/04/28 04:51:23;;;;;;;13.37;8.37;;;9.00;77.90;;;;;;5094849;28;20204;-63
2021/04/28 04:53:49;;;;;;;15.67;7.33;;;9.10;77.90;;;;;;5094969;28;20208;-63
2021/04/28 04:56:15;;;;;;;13.23;6.83;;;9.20;77.60;;;;;;5094289;28;20223;-64
2021/04/28 04:58:42;;;;;;;10.97;7.03;;;9.20;77.30;;;;;;5094772;28;20224;-64
2021/04/28 05:01:08;;;;;;;12.87;8.13;;;9.30;77.30;;;;;;5094750;28;20196;-63
2021/04/28 05:03:34;;;;;;;11.03;7.43;;;9.40;77.10;;;;;;5094879;28;20211;-63
2021/04/28 05:06:01;;;;;;;10.90;7.20;;;9.40;76.90;;;;;;5094866;28;20249;-64
2021/04/28 05:08:27;;;;;;;14.77;7.40;;;9.50;76.90;;;;;;5093966;28;20208;-64
2021/04/28 05:10:53;;;;;;;13.60;7.63;;;9.60;77.00;;;;;;5094755;28;20204;-63
2021/04/28 05:13:20;;;;;;;15.30;8.57;;;9.70;76.50;;;;;;5095875;28;20211;-65
2021/04/28 05:15:46;;;;;;;11.33;8.13;;;9.80;76.20;;;;;;5094483;28;20211;-65
2021/04/28 05:18:12;;;;;;;12.07;7.17;;;9.90;75.90;;;;;;5094803;28;20225;-65
2021/04/28 05:20:38;;;;;;;11.33;8.17;;;9.90;75.60;;;;;;5096059;28;20220;-65
2021/04/28 05:23:06;;;;;;;10.23;7.20;;;9.90;75.80;;;;;;5093328;28;20663;-64
2021/04/28 05:25:32;;;;;;;9.03;6.73;;;9.80;76.40;;;;;;5093395;28;20212;-64
2021/04/28 05:27:59;;;;;;;9.37;6.87;;;9.80;76.70;;;;;;5093992;28;20227;-65
2021/04/28 05:30:25;;;;;;;16.53;7.50;;;9.90;76.90;;;;;;5094103;28;20208;-63
2021/04/28 05:32:51;;;;;;;12.40;6.73;;;10.00;75.80;;;;;;5094066;28;20622;-64
2021/04/28 05:35:17;;;;;;;17.43;6.67;;;10.30;75.50;;;;;;5094376;28;20201;-64
2021/04/28 05:37:44;;;;;;;15.23;6.97;;;11.10;74.80;;;;;;5094203;28;20256;-64
2021/04/28 05:40:12;;;;;;;10.13;6.43;;;12.50;72.00;;;;;;5094062;28;20692;-64
2021/04/28 05:42:39;;;;;;;14.27;6.30;;;14.10;68.10;;;;;;5094765;28;20218;-64
2021/04/28 05:45:08;;;;;;;9.60;6.27;;;16.00;62.30;;;;;;5094313;28;20239;-65
2021/04/28 05:47:34;;;;;;;10.63;6.47;;;17.80;58.20;;;;;;5094311;28;20247;-65
2021/04/28 05:50:01;;;;;;;12.53;7.03;;;19.40;54.60;;;;;;5093998;28;20262;-65
2021/04/28 05:52:27;;;;;;;16.13;7.15;;;20.70;52.20;;;;;;5094909;28;20204;-64
2021/04/28 05:54:53;;;;;;;12.27;7.70;;;21.80;49.80;;;;;;5092798;28;20606;-65
2021/04/28 05:57:20;;;;;;;11.90;7.10;;;22.80;47.50;;;;;;5092092;28;20224;-64
2021/04/28 05:59:46;;;;;;;9.48;6.22;;;23.70;46.30;;;;;;5092123;28;20235;-66
2021/04/28 06:02:13;;;;;;;14.98;6.13;;;24.50;45.10;;;;;;5092363;28;20698;-66
2021/04/28 06:04:39;;;;;;;16.88;7.15;;;25.20;43.80;;;;;;5092594;28;20200;-65
2021/04/28 06:07:06;;;;;;;12.63;6.35;;;25.80;43.10;;;;;;5092469;28;20232;-66
2021/04/28 06:09:33;;;;;;;12.23;6.75;;;26.30;42.30;;;;;;5092839;28;20200;-66
2021/04/28 06:11:59;;;;;;;11.32;6.95;;;26.90;42.10;;;;;;5093201;28;20226;-66
2021/04/28 06:14:26;;;;;;;9.20;6.25;;;27.50;41.00;;;;;;5092639;28;20628;-66
2021/04/28 06:16:52;;;;;;;10.40;6.60;;;28.00;39.40;;;;;;5092017;28;20236;-66
2021/04/28 06:19:18;;;;;;;12.25;6.70;;;28.00;38.80;;;;;;5092418;28;20224;-66
2021/04/28 06:21:45;;;;;;;16.20;6.88;;;27.70;39.00;;;;;;5092650;28;20681;-66
2021/04/28 06:24:11;;;;;;;13.45;5.95;;;27.30;39.70;;;;;;5092463;28;20208;-64
2021/04/28 06:26:39;;;;;;;17.50;7.05;;;27.70;39.30;;;;;;5091618;28;20224;-67
2021/04/28 06:29:05;;;;;;;12.63;6.80;;;28.20;38.90;;;;;;5089027;28;20200;-63
2021/04/28 06:31:32;;;;;;;7.88;6.43;;;28.80;37.90;;;;;;5090820;28;20208;-64
2021/04/28 06:33:58;;;;;;;9.68;6.63;;;29.40;37.00;;;;;;5090933;28;20208;-63
2021/04/28 06:36:25;;;;;;;9.45;6.25;;;29.60;36.70;;;;;;5093147;28;20228;-65
2021/04/28 06:38:51;;;;;;;11.85;6.18;;;29.80;36.50;;;;;;5094700;28;20220;-64
2021/04/28 06:41:17;;;;;;;10.15;6.97;;;30.30;35.80;;;;;;5094875;28;20204;-64
2021/04/28 06:43:43;;;;;;;10.90;6.47;;;30.40;36.00;;;;;;5094904;28;20200;-65
2021/04/28 06:46:09;;;;;;;7.72;6.57;;;30.80;35.60;;;;;;5095459;28;20220;-65
2021/04/28 06:48:36;;;;;;;9.75;6.60;;;31.10;34.70;;;;;;5095647;28;20196;-65
2021/04/28 06:51:03;;;;;;;9.52;6.63;;;30.80;35.00;;;;;;5095805;28;20204;-65
2021/04/28 06:53:29;;;;;;;9.82;6.97;;;30.90;34.80;;;;;;5095744;28;20212;-65
2021/04/28 06:55:57;;;;;;;8.23;6.82;;;31.00;34.90;;;;;;5095561;28;20200;-65
2021/04/28 06:58:23;;;;;;;10.38;7.05;;;31.10;34.80;;;;;;5095092;28;20227;-65
2021/04/28 07:00:50;;;;;;;10.43;7.32;;;31.50;34.30;;;;;;5095635;28;20445;-65
2021/04/28 07:03:16;;;;;;;11.77;6.55;;;31.50;34.10;;;;;;5095767;28;20204;-66
2021/04/28 07:05:43;;;;;;;9.18;6.35;;;31.20;34.20;;;;;;5096168;28;20239;-65
2021/04/28 07:08:10;;;;;;;7.18;6.03;;;30.90;34.70;;;;;;5096585;28;20204;-65
2021/04/28 07:10:37;;;;;;;12.18;6.53;;;30.90;34.50;;;;;;5095656;28;20249;-65
2021/04/28 07:13:05;;;;;;;13.25;6.95;;;30.90;34.60;;;;;;5096084;28;20219;-65
2021/04/28 07:15:31;;;;;;;7.75;6.82;;;31.00;34.60;;;;;;5095583;28;20592;-65
2021/04/28 07:17:57;;;;;;;11.35;7.00;;;31.20;34.20;;;;;;5094770;28;20228;-65
2021/04/28 07:20:24;;;;;;;8.98;6.80;;;31.20;34.30;;;;;;5095643;28;20204;-67
2021/04/28 07:22:51;;;;;;;8.98;6.15;;;30.80;34.70;;;;;;5095105;28;20209;-65
2021/04/28 07:25:17;;;;;;;12.10;6.60;;;30.70;34.90;;;;;;5094712;28;20208;-64
2021/04/28 07:27:43;;;;;;;7.40;6.45;;;30.70;34.70;;;;;;5094236;28;20236;-65
2021/04/28 07:30:11;;;;;;;10.55;6.60;;;30.80;34.70;;;;;;5094404;28;20200;-65
2021/04/28 07:32:37;;;;;;;9.70;6.82;;;31.10;34.20;;;;;;5094337;28;20215;-67
2021/04/28 07:35:05;;;;;;;11.20;6.97;;;31.30;34.20;;;;;;5094372;28;20261;-67
2021/04/28 07:37:31;;;;;;;8.57;6.60;;;31.60;34.00;;;;;;5094530;28;20232;-65
2021/04/28 07:39:59;;;;;;;10.25;7.13;;;32.10;33.50;;;;;;5094399;28;20269;-65
2021/04/28 07:42:25;;;;;;;10.07;6.70;;;32.70;32.90;;;;;;5094655;28;20208;-65
2021/04/28 07:44:51;;;;;;;9.95;6.40;;;33.30;32.20;;;;;;5094208;28;20671;-65
2021/04/28 07:47:18;;;;;;;10.80;6.82;;;34.10;31.70;;;;;;5094767;28;20300;-65
2021/04/28 07:49:44;;;;;;;8.90;6.90;;;34.80;31.00;;;;;;5094826;28;20226;-66
2021/04/28 07:52:10;;;;;;;10.38;6.65;;;35.20;30.10;;;;;;5094561;28;20581;-68
2021/04/28 07:54:37;;;;;;;8.80;6.10;;;35.40;30.00;;;;;;5072409;28;20224;-67
2021/04/28 07:57:04;;;;;;;10.32;6.35;;;35.60;30.00;;;;;;5073506;28;20503;-70
2021/04/28 07:59:31;;;;;;;11.65;6.68;;;35.60;30.00;;;;;;5073050;28;20217;-67
2021/04/28 08:01:57;;;;;;;8.57;6.57;;;35.70;29.70;;;;;;5073469;28;20212;-67
2021/04/28 08:04:23;;;;;;;9.85;7.07;;;35.70;29.80;;;;;;5072923;28;20218;-68
2021/04/28 08:06:49;;;;;;;9.40;6.45;;;35.40;30.00;;;;;;5073015;28;20750;-67
2021/04/28 08:09:16;;;;;;;8.52;6.82;;;35.40;30.00;;;;;;5073399;28;20209;-64
2021/04/28 08:11:42;;;;;;;11.40;7.00;;;35.70;29.80;;;;;;5073174;28;20205;-65
2021/04/28 08:14:09;;;;;;;8.50;6.68;;;36.10;29.50;;;;;;5073137;28;20668;-65
2021/04/28 08:16:36;;;;;;;9.52;6.40;;;36.20;29.40;;;;;;5072947;28;20244;-65
2021/04/28 08:19:03;;;;;;;11.93;6.60;;;35.70;29.60;;;;;;5074540;28;20597;-65
2021/04/28 08:21:29;;;;;;;8.20;6.90;;;35.20;30.00;;;;;;5075161;28;20204;-65
2021/04/28 08:23:55;;;;;;;9.75;6.93;;;34.30;30.40;;;;;;5073533;28;20211;-66
2021/04/28 08:26:22;;;;;;;8.93;6.43;;;32.80;32.20;;;;;;5072970;28;20315;-65
2021/04/28 08:28:49;;;;;;;9.98;7.03;;;30.90;34.40;;;;;;5072750;28;20580;-65
2021/04/28 08:31:18;;;;;;;14.77;8.38;;;28.90;36.40;;;;;;5072896;28;20751;-65
2021/04/28 08:33:44;;;;;;;8.48;7.10;;;27.50;38.30;;;;;;5072503;28;20208;-65
2021/04/28 08:36:11;;;;;;;9.50;7.60;;;26.50;39.50;;;;;;5072648;28;20369;-65
2021/04/28 08:38:38;;;;;;;11.05;7.82;;;25.50;41.10;;;;;;5072368;28;20594;-65
2021/04/28 08:41:06;;;;;;;13.57;7.25;;;24.50;42.30;;;;;;5072859;28;20209;-65
2021/04/28 08:43:33;;;;;;;10.60;7.18;;;23.70;43.80;;;;;;5072808;28;20221;-64
2021/04/28 08:46:01;;;;;;;9.85;7.43;;;22.90;44.80;;;;;;5072644;28;20724;-64
2021/04/28 08:48:28;;;;;;;11.85;7.32;;;22.40;45.70;;;;;;5072630;28;20197;-64
2021/04/28 08:50:54;;;;;;;10.27;6.70;;;22.10;46.20;;;;;;5072466;28;20205;-65
2021/04/28 08:53:21;;;;;;;9.90;7.10;;;21.90;46.60;;;;;;5072082;28;20213;-65
2021/04/28 08:55:47;;;;;;;10.45;7.28;;;21.80;47.00;;;;;;5071942;28;20254;-65
2021/04/28 08:58:14;;;;;;;12.50;7.40;;;21.60;47.30;;;;;;5071358;28;20221;-65
2021/04/28 09:00:40;;;;;;;12.20;7.32;;;21.60;47.30;;;;;;5072225;28;20296;-65
2021/04/28 09:03:07;;;;;;;9.68;7.03;;;21.60;47.20;;;;;;5072199;28;20266;-65
2021/04/28 09:05:35;;;;;;;13.45;7.60;;;21.60;47.30;;;;;;5072242;28;20220;-64
2021/04/28 09:08:08;;;;;;;12.85;8.23;;;21.50;47.90;;;;;;5072181;28;20225;-65
2021/04/28 09:10:35;;;;;;;11.68;7.63;;;21.10;48.20;;;;;;5072575;28;20266;-65
2021/04/28 09:13:04;;;;;;;11.85;7.85;;;20.90;48.60;;;;;;5072257;28;20209;-65
2021/04/28 09:15:36;;;;;;;12.50;8.07;;;20.50;49.10;;;;;;5072237;28;20216;-64
2021/04/28 09:18:03;;;;;;;12.02;7.53;;;20.30;49.70;;;;;;5071994;28;20240;-64
2021/04/28 09:20:32;;;;;;;10.30;8.25;;;20.20;50.00;;;;;;5071315;28;20204;-62
2021/04/28 09:23:08;;;;;;;11.60;7.72;;;20.20;50.20;;;;;;5071725;28;20201;-62
2021/04/28 09:25:41;;;;;;;9.88;8.15;;;20.30;50.30;;;;;;5071630;28;20208;-61
2021/04/28 09:28:24;;;;;;;14.30;8.65;;;20.30;50.20;;;;;;5070610;28;20216;-60
2021/04/28 09:30:55;;;;;;;11.75;8.00;;;20.40;50.30;;;;;;5071665;28;20624;-61
2021/04/28 09:33:22;;;;;;;13.35;8.40;;;20.30;50.60;;;;;;5071151;28;20205;-62
2021/04/28 09:35:58;;;;;;;12.25;8.65;;;20.10;49.90;;;;;;5071600;28;20212;-62
2021/04/28 09:38:25;;;;;;;14.65;9.30;;;19.90;50.10;;;;;;5071329;28;20319;-64
2021/04/28 09:40:56;;;;;;;17.38;9.60;;;20.00;48.90;;;;;;5071243;28;20209;-65
2021/04/28 09:43:35;;;;;;;12.88;8.73;;;20.10;47.70;;;;;;5071232;28;20573;-66
2021/04/28 09:46:01;;;;;;;10.95;8.73;;;20.40;47.30;;;;;;5071057;28;20224;-65
2021/04/28 09:48:28;;;;;;;15.23;9.13;;;20.70;47.30;;;;;;5071299;28;20208;-64
2021/04/28 09:51:03;;;;;;;12.90;8.65;;;20.80;46.70;;;;;;5071056;28;20216;-64
2021/04/28 09:53:31;;;;;;;14.45;9.13;;;21.00;46.60;;;;;;5070892;28;20208;-63
2021/04/28 09:55:58;;;;;;;13.82;9.05;;;21.20;46.60;;;;;;5070972;28;20201;-63
2021/04/28 09:58:48;;;;;;;12.93;8.57;;;21.30;46.50;;;;;;5070535;28;20691;-64
2021/04/28 10:01:15;;;;;;;14.38;9.13;;;21.60;45.50;;;;;;5071399;28;20246;-65
2021/04/28 10:03:46;;;;;;;12.82;8.95;;;21.80;43.90;;;;;;5070763;28;20587;-63
2021/04/28 10:06:12;;;;;;;14.18;9.63;;;21.80;43.90;;;;;;5070799;28;20792;-64
2021/04/28 10:08:39;;;;;;;10.25;8.75;;;21.90;43.40;;;;;;5071041;28;20645;-63
2021/04/28 10:11:06;;;;;;;12.18;9.65;;;21.90;44.00;;;;;;5071027;28;20282;-63
2021/04/28 10:13:32;;;;;;;12.60;8.85;;;21.80;44.20;;;;;;5071344;28;20205;-64
2021/04/28 10:15:59;;;;;;;15.48;8.85;;;21.80;43.30;;;;;;5070588;28;20216;-63
2021/04/28 10:18:28;;;;;;;10.32;8.05;;;21.80;43.00;;;;;;5070763;28;20228;-64
2021/04/28 10:20:55;;;;;;;9.80;7.07;;;21.90;42.20;;;;;;5070918;28;20296;-64
2021/04/28 10:23:24;;;;;;;11.93;8.07;;;22.00;39.20;;;;;;5070552;28;20494;-64
2021/04/28 10:25:51;;;;;;;14.10;8.02;;;22.10;38.80;;;;;;5071216;28;20212;-61
2021/04/28 10:28:19;;;;;;;10.18;8.48;;;22.00;40.00;;;;;;5071374;28;20200;-63
2021/04/28 10:30:47;;;;;;;10.38;7.90;;;22.00;40.70;;;;;;5071758;28;20483;-60
2021/04/28 10:33:17;;;;;;;12.77;8.10;;;21.90;40.80;;;;;;5072026;28;20215;-61
2021/04/28 10:35:44;;;;;;;11.50;8.57;;;21.80;40.60;;;;;;5071880;28;20220;-61
2021/04/28 10:38:11;;;;;;;11.75;8.05;;;21.90;40.40;;;;;;5071978;28;20215;-61
2021/04/28 10:40:37;;;;;;;10.02;7.22;;;21.90;40.50;;;;;;5071064;28;20201;-61
2021/04/28 10:43:08;;;;;;;12.95;7.60;;;21.90;41.60;;;;;;5071106;28;20255;-61
2021/04/28 10:45:38;;;;;;;10.65;8.35;;;21.90;41.50;;;;;;5070945;28;20289;-61
2021/04/28 10:48:07;;;;;;;14.85;7.70;;;21.90;41.00;;;;;;5070452;28;20209;-62
2021/04/28 10:50:38;;;;;;;12.82;8.35;;;21.90;41.20;;;;;;5071088;28;20209;-61
2021/04/28 10:53:07;;;;;;;11.60;8.43;;;22.10;41.80;;;;;;5070796;28;20205;-62
2021/04/28 10:55:46;;;;;;;9.05;7.25;;;22.30;41.20;;;;;;5070500;28;20213;-63
2021/04/28 10:58:38;;;;;;;9.07;6.80;;;22.30;40.50;;;;;;5070337;28;20204;-62
2021/04/28 11:01:35;;;;;;;9.32;7.57;;;22.30;41.40;;;;;;5070298;28;20685;-61
2021/04/28 11:04:02;;;;;;;10.32;6.45;;;22.50;40.60;;;;;;5070305;28;20209;-61
2021/04/28 11:06:36;;;;;;;11.48;7.18;;;22.80;38.40;;;;;;5070331;28;20321;-62
2021/04/28 11:09:11;;;;;;;10.32;7.18;;;23.10;38.30;;;;;;5070570;28;20209;-62
2021/04/28 11:11:38;;;;;;;9.45;6.80;;;23.20;38.60;;;;;;5070594;28;20201;-62
2021/04/28 11:14:30;;;;;;;10.70;6.70;;;23.30;38.40;;;;;;5070321;28;20683;-63
2021/04/28 11:16:57;;;;;;;9.52;7.15;;;23.30;38.50;;;;;;5070210;28;20229;-64
2021/04/28 11:19:25;;;;;;;8.60;7.30;;;23.50;38.00;;;;;;5069987;28;20286;-62
2021/04/28 11:22:18;;;;;;;8.15;6.70;;;23.60;37.70;;;;;;5071866;28;20212;-61
2021/04/28 11:25:00;;;;;;;9.45;6.47;;;23.80;36.80;;;;;;5074198;28;20247;-62
2021/04/28 11:27:46;;;;;;;9.25;6.30;;;23.80;36.60;;;;;;5074856;28;20256;-61
2021/04/28 11:30:34;;;;;;;10.73;6.47;;;23.80;36.90;;;;;;5074960;28;20201;-61
2021/04/28 11:33:33;;;;;;;9.85;6.75;;;23.70;36.30;;;;;;5075130;28;20212;-62
2021/04/28 11:36:13;;;;;;;8.13;6.20;;;23.50;36.40;;;;;;5074889;28;20717;-60
2021/04/28 11:38:42;;;;;;;8.05;6.05;;;23.40;35.50;;;;;;5074247;28;20693;-64
2021/04/28 11:41:11;;;;;;;6.35;5.50;;;23.40;35.80;;;;;;5074589;28;20274;-62
2021/04/28 11:43:39;;;;;;;8.80;5.90;;;23.30;35.90;;;;;;5074468;28;20232;-63
2021/04/28 11:46:09;;;;;;;9.68;5.70;;;23.20;36.00;;;;;;5074020;28;20228;-65
2021/04/28 11:48:37;;;;;;;8.68;5.80;;;23.10;36.10;;;;;;5073407;28;20549;-63
2021/04/28 11:51:06;;;;;;;10.70;6.13;;;23.10;36.00;;;;;;5074076;28;20211;-65
2021/04/28 11:53:38;;;;;;;8.07;6.20;;;23.00;35.90;;;;;;5074071;28;20278;-63
2021/04/28 11:56:04;;;;;;;7.35;5.70;;;22.90;36.20;;;;;;5073492;28;20228;-61
2021/04/28 11:58:33;;;;;;;8.55;5.82;;;23.00;35.90;;;;;;5073691;28;20225;-61
2021/04/28 12:01:08;;;;;;;12.18;6.28;;;23.00;35.80;;;;;;5073502;28;20247;-61
2021/04/28 12:03:51;;;;;;;8.75;5.13;;;23.00;35.80;;;;;;5073477;28;20205;-63
2021/04/28 12:06:38;;;;;;;12.50;5.78;;;22.90;35.30;;;;;;5073829;28;20846;-62
2021/04/28 12:09:30;;;;;;;8.77;5.65;;;22.70;35.30;;;;;;5073353;28;20579;-61
2021/04/28 12:12:15;;;;;;;7.55;5.85;;;22.70;35.90;;;;;;5073372;28;20299;-61
2021/04/28 12:14:42;;;;;;;9.57;5.60;;;22.60;35.90;;;;;;5073584;28;20209;-61
2021/04/28 12:17:09;;;;;;;7.05;5.38;;;22.70;35.70;;;;;;5073318;28;20286;-62
2021/04/28 12:19:36;;;;;;;8.52;5.18;;;22.70;35.10;;;;;;5072716;28;20708;-63
2021/04/28 12:22:04;;;;;;;7.78;5.47;;;22.70;35.00;;;;;;5073259;28;20212;-62
2021/04/28 12:24:33;;;;;;;9.80;5.20;;;22.80;35.60;;;;;;5073242;28;20204;-61
2021/04/28 12:27:14;;;;;;;8.60;5.13;;;22.90;35.70;;;;;;5073615;28;20316;-62
2021/04/28 12:29:43;;;;;;;8.52;5.00;;;22.90;34.90;;;;;;5072979;28;20201;-63
2021/04/28 12:32:11;;;;;;;9.60;4.78;;;22.90;35.00;;;;;;5073652;28;20205;-62
2021/04/28 12:34:39;;;;;;;6.63;4.72;;;22.80;34.60;;;;;;5073417;28;20204;-63
2021/04/28 12:37:18;;;;;;;6.88;4.82;;;22.70;33.90;;;;;;5072910;28;20722;-63
2021/04/28 12:39:50;;;;;;;6.75;4.90;;;22.60;34.70;;;;;;5072692;28;20225;-62
2021/04/28 12:42:20;;;;;;;5.45;4.47;;;22.80;34.00;;;;;;5072874;28;20204;-62
2021/04/28 12:44:49;;;;;;;7.65;4.78;;;22.80;34.00;;;;;;5072845;28;20204;-62
2021/04/28 12:47:16;;;;;;;7.07;3.95;;;23.00;34.00;;;;;;5072670;28;20228;-62
2021/04/28 12:49:52;;;;;;;6.22;4.55;;;23.30;34.30;;;;;;5073190;28;20212;-62
2021/04/28 12:52:18;;;;;;;11.75;5.10;;;23.50;34.60;;;;;;5072867;28;20208;-64
2021/04/28 12:54:44;;;;;;;7.68;5.43;;;23.70;34.40;;;;;;5072578;28;20205;-63